sensor_id;sensor_type;location;lat;lon;timestamp;P1;durP1;ratioP1;P2;durP2;ratioP2
20880;SDS011;10600;53.096;8.802;2023-01-29T00:00:17;27.20;;;13.43;;
20880;SDS011;10600;53.096;8.802;2023-01-29T00:01:18;31.85;;;17.83;;
20880;SDS011;10600;53.096;8.802;2023-01-29T00:02:19;31.92;;;17.05;;
20880;SDS011;10600;53.096;8.802;2023-01-29T00:03:20;33.55;;;16.92;;
20880;SDS011;10600;53.096;8.802;2023-01-29T00:04:21;33.63;;;16.98;;
20880;SDS011;10600;53.096;8.802;2023-01-29T00:05:22;32.83;;;16.38;;
20880;SDS011;10600;53.096;8.802;2023-01-29T00:06:22;32.80;;;16.42;;
20880;SDS011;10600;53.096;8.802;2023-01-29T00:07:23;31.80;;;16.88;;
20880;SDS011;10600;53.096;8.802;2023-01-29T00:08:24;30.40;;;15.45;;
20880;SDS011;10600;53.096;8.802;2023-01-29T00:09:26;34.40;;;16.10;;
20880;SDS011;10600;53.096;8.802;2023-01-29T00:10:27;32.20;;;17.95;;
20880;SDS011;10600;53.096;8.802;2023-01-29T00:11:27;30.50;;;15.38;;
20880;SDS011;10600;53.096;8.802;2023-01-29T00:12:29;37.85;;;17.52;;
20880;SDS011;10600;53.096;8.802;2023-01-29T00:13:29;28.73;;;15.95;;
20880;SDS011;10600;53.096;8.802;2023-01-29T00:14:30;35.85;;;17.50;;
20880;SDS011;10600;53.096;8.802;2023-01-29T00:15:31;34.88;;;16.42;;
20880;SDS011;10600;53.096;8.802;2023-01-29T00:16:31;29.25;;;15.40;;
20880;SDS011;10600;53.096;8.802;2023-01-29T00:17:32;31.10;;;14.55;;
20880;SDS011;10600;53.096;8.802;2023-01-29T00:18:36;33.75;;;16.75;;
20880;SDS011;10600;53.096;8.802;2023-01-29T00:19:38;31.33;;;16.67;;
20880;SDS011;10600;53.096;8.802;2023-01-29T00:20:38;36.10;;;17.50;;
20880;SDS011;10600;53.096;8.802;2023-01-29T00:21:42;30.73;;;15.95;;
20880;SDS011;10600;53.096;8.802;2023-01-29T00:22:43;29.75;;;15.65;;
20880;SDS011;10600;53.096;8.802;2023-01-29T00:23:44;22.58;;;12.85;;
20880;SDS011;10600;53.096;8.802;2023-01-29T00:24:45;27.38;;;14.25;;
20880;SDS011;10600;53.096;8.802;2023-01-29T00:25:45;31.48;;;17.13;;
20880;SDS011;10600;53.096;8.802;2023-01-29T00:26:46;31.60;;;16.45;;
20880;SDS011;10600;53.096;8.802;2023-01-29T00:27:49;31.40;;;16.10;;
20880;SDS011;10600;53.096;8.802;2023-01-29T00:28:49;31.70;;;15.75;;
20880;SDS011;10600;53.096;8.802;2023-01-29T00:29:50;29.33;;;15.48;;
20880;SDS011;10600;53.096;8.802;2023-01-29T00:31:12;30.45;;;15.25;;
20880;SDS011;10600;53.096;8.802;2023-01-29T00:32:18;33.38;;;16.30;;
20880;SDS011;10600;53.096;8.802;2023-01-29T00:33:19;28.98;;;14.25;;
20880;SDS011;10600;53.096;8.802;2023-01-29T00:34:19;30.95;;;16.63;;
20880;SDS011;10600;53.096;8.802;2023-01-29T00:35:21;34.05;;;17.17;;
20880;SDS011;10600;53.096;8.802;2023-01-29T00:36:22;30.58;;;16.52;;
20880;SDS011;10600;53.096;8.802;2023-01-29T00:37:24;33.00;;;16.92;;
20880;SDS011;10600;53.096;8.802;2023-01-29T00:38:25;33.13;;;16.23;;
20880;SDS011;10600;53.096;8.802;2023-01-29T00:39:26;30.58;;;14.73;;
20880;SDS011;10600;53.096;8.802;2023-01-29T00:40:37;32.08;;;15.75;;
20880;SDS011;10600;53.096;8.802;2023-01-29T00:41:57;31.92;;;16.00;;
20880;SDS011;10600;53.096;8.802;2023-01-29T00:43:16;32.38;;;15.43;;
20880;SDS011;10600;53.096;8.802;2023-01-29T00:44:36;31.05;;;15.88;;
20880;SDS011;10600;53.096;8.802;2023-01-29T00:45:55;29.50;;;16.17;;
20880;SDS011;10600;53.096;8.802;2023-01-29T00:46:56;26.13;;;13.50;;
20880;SDS011;10600;53.096;8.802;2023-01-29T00:47:57;30.55;;;15.68;;
20880;SDS011;10600;53.096;8.802;2023-01-29T00:48:58;33.25;;;16.27;;
20880;SDS011;10600;53.096;8.802;2023-01-29T00:50:01;33.15;;;17.48;;
20880;SDS011;10600;53.096;8.802;2023-01-29T00:51:04;33.53;;;16.55;;
20880;SDS011;10600;53.096;8.802;2023-01-29T00:52:04;26.63;;;14.30;;
20880;SDS011;10600;53.096;8.802;2023-01-29T00:53:23;30.67;;;16.17;;
20880;SDS011;10600;53.096;8.802;2023-01-29T00:54:24;28.85;;;14.93;;
20880;SDS011;10600;53.096;8.802;2023-01-29T00:55:24;36.65;;;16.85;;
20880;SDS011;10600;53.096;8.802;2023-01-29T00:56:26;35.00;;;16.25;;
20880;SDS011;10600;53.096;8.802;2023-01-29T00:57:30;32.55;;;15.77;;
20880;SDS011;10600;53.096;8.802;2023-01-29T00:58:31;27.98;;;15.07;;
20880;SDS011;10600;53.096;8.802;2023-01-29T00:59:35;32.60;;;16.65;;
20880;SDS011;10600;53.096;8.802;2023-01-29T01:00:35;33.03;;;16.38;;
20880;SDS011;10600;53.096;8.802;2023-01-29T01:01:36;29.02;;;15.80;;
20880;SDS011;10600;53.096;8.802;2023-01-29T01:02:55;32.65;;;16.65;;
20880;SDS011;10600;53.096;8.802;2023-01-29T01:04:05;28.65;;;15.40;;
20880;SDS011;10600;53.096;8.802;2023-01-29T01:05:07;32.97;;;16.25;;
20880;SDS011;10600;53.096;8.802;2023-01-29T01:06:16;30.83;;;15.27;;
20880;SDS011;10600;53.096;8.802;2023-01-29T01:07:17;35.22;;;17.38;;
20880;SDS011;10600;53.096;8.802;2023-01-29T01:08:18;29.00;;;15.45;;
20880;SDS011;10600;53.096;8.802;2023-01-29T01:09:37;29.80;;;14.70;;
20880;SDS011;10600;53.096;8.802;2023-01-29T01:11:01;31.33;;;15.38;;
20880;SDS011;10600;53.096;8.802;2023-01-29T01:12:04;33.20;;;17.00;;
20880;SDS011;10600;53.096;8.802;2023-01-29T01:13:05;33.22;;;15.35;;
20880;SDS011;10600;53.096;8.802;2023-01-29T01:14:06;31.77;;;16.05;;
20880;SDS011;10600;53.096;8.802;2023-01-29T01:15:07;28.98;;;14.57;;
20880;SDS011;10600;53.096;8.802;2023-01-29T01:16:09;33.92;;;16.80;;
20880;SDS011;10600;53.096;8.802;2023-01-29T01:17:11;30.52;;;16.48;;
20880;SDS011;10600;53.096;8.802;2023-01-29T01:18:14;32.58;;;14.57;;
20880;SDS011;10600;53.096;8.802;2023-01-29T01:19:15;24.67;;;13.00;;
20880;SDS011;10600;53.096;8.802;2023-01-29T01:20:16;32.50;;;16.55;;
20880;SDS011;10600;53.096;8.802;2023-01-29T01:21:16;30.73;;;15.73;;
20880;SDS011;10600;53.096;8.802;2023-01-29T01:22:17;30.80;;;16.65;;
20880;SDS011;10600;53.096;8.802;2023-01-29T01:23:18;32.08;;;16.48;;
20880;SDS011;10600;53.096;8.802;2023-01-29T01:24:19;34.40;;;16.67;;
20880;SDS011;10600;53.096;8.802;2023-01-29T01:25:21;33.53;;;17.08;;
20880;SDS011;10600;53.096;8.802;2023-01-29T01:26:22;33.30;;;16.63;;
20880;SDS011;10600;53.096;8.802;2023-01-29T01:27:23;29.80;;;15.95;;
20880;SDS011;10600;53.096;8.802;2023-01-29T01:28:24;28.67;;;15.32;;
20880;SDS011;10600;53.096;8.802;2023-01-29T01:29:25;32.13;;;16.30;;
20880;SDS011;10600;53.096;8.802;2023-01-29T01:30:26;31.67;;;16.77;;
20880;SDS011;10600;53.096;8.802;2023-01-29T01:31:27;31.80;;;14.18;;
20880;SDS011;10600;53.096;8.802;2023-01-29T01:32:27;32.00;;;16.15;;
20880;SDS011;10600;53.096;8.802;2023-01-29T01:33:28;33.60;;;16.48;;
20880;SDS011;10600;53.096;8.802;2023-01-29T01:34:29;33.55;;;16.73;;
20880;SDS011;10600;53.096;8.802;2023-01-29T01:35:29;28.85;;;15.88;;
20880;SDS011;10600;53.096;8.802;2023-01-29T01:36:30;34.15;;;17.02;;
20880;SDS011;10600;53.096;8.802;2023-01-29T01:37:31;34.33;;;17.30;;
20880;SDS011;10600;53.096;8.802;2023-01-29T01:38:32;29.10;;;15.73;;
20880;SDS011;10600;53.096;8.802;2023-01-29T01:39:32;30.92;;;16.02;;
20880;SDS011;10600;53.096;8.802;2023-01-29T01:40:33;31.50;;;15.70;;
20880;SDS011;10600;53.096;8.802;2023-01-29T01:41:34;32.35;;;15.90;;
20880;SDS011;10600;53.096;8.802;2023-01-29T01:42:34;29.90;;;15.70;;
20880;SDS011;10600;53.096;8.802;2023-01-29T01:46:29;31.60;;;15.60;;
20880;SDS011;10600;53.096;8.802;2023-01-29T01:47:35;31.52;;;16.27;;
20880;SDS011;10600;53.096;8.802;2023-01-29T01:48:39;31.40;;;15.80;;
20880;SDS011;10600;53.096;8.802;2023-01-29T01:49:40;29.95;;;16.42;;
20880;SDS011;10600;53.096;8.802;2023-01-29T01:50:44;31.17;;;14.98;;
20880;SDS011;10600;53.096;8.802;2023-01-29T01:51:49;29.67;;;15.23;;
20880;SDS011;10600;53.096;8.802;2023-01-29T01:52:52;30.90;;;15.52;;
20880;SDS011;10600;53.096;8.802;2023-01-29T01:54:11;31.13;;;16.58;;
20880;SDS011;10600;53.096;8.802;2023-01-29T01:55:25;32.47;;;15.38;;
20880;SDS011;10600;53.096;8.802;2023-01-29T01:56:29;31.48;;;15.90;;
20880;SDS011;10600;53.096;8.802;2023-01-29T01:57:40;31.55;;;15.88;;
20880;SDS011;10600;53.096;8.802;2023-01-29T01:58:44;29.27;;;16.23;;
20880;SDS011;10600;53.096;8.802;2023-01-29T02:00:04;30.70;;;16.48;;
20880;SDS011;10600;53.096;8.802;2023-01-29T02:01:11;35.78;;;16.20;;
20880;SDS011;10600;53.096;8.802;2023-01-29T02:02:13;31.88;;;14.93;;
20880;SDS011;10600;53.096;8.802;2023-01-29T02:03:34;23.90;;;11.25;;
20880;SDS011;10600;53.096;8.802;2023-01-29T02:04:59;27.30;;;14.23;;
20880;SDS011;10600;53.096;8.802;2023-01-29T02:06:19;31.75;;;16.58;;
20880;SDS011;10600;53.096;8.802;2023-01-29T02:07:39;33.08;;;17.40;;
20880;SDS011;10600;53.096;8.802;2023-01-29T02:09:02;32.65;;;16.38;;
20880;SDS011;10600;53.096;8.802;2023-01-29T02:10:24;32.88;;;17.17;;
20880;SDS011;10600;53.096;8.802;2023-01-29T02:11:26;35.28;;;15.73;;
20880;SDS011;10600;53.096;8.802;2023-01-29T02:12:27;35.15;;;17.23;;
20880;SDS011;10600;53.096;8.802;2023-01-29T02:13:30;30.92;;;14.98;;
20880;SDS011;10600;53.096;8.802;2023-01-29T02:14:31;33.58;;;16.30;;
20880;SDS011;10600;53.096;8.802;2023-01-29T02:15:37;35.80;;;18.08;;
20880;SDS011;10600;53.096;8.802;2023-01-29T02:16:45;34.47;;;17.85;;
20880;SDS011;10600;53.096;8.802;2023-01-29T02:17:46;31.67;;;15.95;;
20880;SDS011;10600;53.096;8.802;2023-01-29T02:18:47;32.47;;;17.15;;
20880;SDS011;10600;53.096;8.802;2023-01-29T02:19:52;32.20;;;16.77;;
20880;SDS011;10600;53.096;8.802;2023-01-29T02:21:06;32.80;;;17.35;;
20880;SDS011;10600;53.096;8.802;2023-01-29T02:22:49;35.25;;;17.15;;
20880;SDS011;10600;53.096;8.802;2023-01-29T02:24:16;33.30;;;17.00;;
20880;SDS011;10600;53.096;8.802;2023-01-29T02:27:08;32.65;;;17.23;;
20880;SDS011;10600;53.096;8.802;2023-01-29T02:35:27;37.60;;;16.45;;
20880;SDS011;10600;53.096;8.802;2023-01-29T02:37:49;27.73;;;13.88;;
20880;SDS011;10600;53.096;8.802;2023-01-29T02:40:23;32.45;;;15.38;;
20880;SDS011;10600;53.096;8.802;2023-01-29T02:42:29;22.30;;;12.13;;
20880;SDS011;10600;53.096;8.802;2023-01-29T02:44:04;32.88;;;16.42;;
20880;SDS011;10600;53.096;8.802;2023-01-29T02:45:21;35.60;;;17.60;;
20880;SDS011;10600;53.096;8.802;2023-01-29T02:46:34;33.80;;;18.20;;
20880;SDS011;10600;53.096;8.802;2023-01-29T02:47:41;30.00;;;15.25;;
20880;SDS011;10600;53.096;8.802;2023-01-29T02:49:56;28.13;;;14.75;;
20880;SDS011;10600;53.096;8.802;2023-01-29T02:51:07;34.53;;;17.15;;
20880;SDS011;10600;53.096;8.802;2023-01-29T02:52:18;34.13;;;15.57;;
20880;SDS011;10600;53.096;8.802;2023-01-29T02:57:19;35.47;;;17.45;;
20880;SDS011;10600;53.096;8.802;2023-01-29T02:59:44;32.88;;;16.05;;
20880;SDS011;10600;53.096;8.802;2023-01-29T03:00:49;37.00;;;18.15;;
20880;SDS011;10600;53.096;8.802;2023-01-29T03:01:54;28.77;;;15.50;;
20880;SDS011;10600;53.096;8.802;2023-01-29T03:03:15;32.85;;;16.60;;
20880;SDS011;10600;53.096;8.802;2023-01-29T03:04:28;32.28;;;17.08;;
20880;SDS011;10600;53.096;8.802;2023-01-29T03:06:54;31.58;;;17.25;;
20880;SDS011;10600;53.096;8.802;2023-01-29T03:08:01;36.47;;;17.95;;
20880;SDS011;10600;53.096;8.802;2023-01-29T03:09:25;36.17;;;17.10;;
20880;SDS011;10600;53.096;8.802;2023-01-29T03:10:29;31.50;;;16.73;;
20880;SDS011;10600;53.096;8.802;2023-01-29T03:11:38;37.83;;;18.40;;
20880;SDS011;10600;53.096;8.802;2023-01-29T03:12:41;32.13;;;17.13;;
20880;SDS011;10600;53.096;8.802;2023-01-29T03:13:44;35.28;;;19.05;;
20880;SDS011;10600;53.096;8.802;2023-01-29T03:15:08;35.97;;;16.20;;
20880;SDS011;10600;53.096;8.802;2023-01-29T03:16:18;34.53;;;18.00;;
20880;SDS011;10600;53.096;8.802;2023-01-29T03:17:25;35.03;;;17.85;;
20880;SDS011;10600;53.096;8.802;2023-01-29T03:18:35;35.08;;;17.63;;
20880;SDS011;10600;53.096;8.802;2023-01-29T03:19:45;33.45;;;17.02;;
20880;SDS011;10600;53.096;8.802;2023-01-29T03:20:52;35.42;;;18.60;;
20880;SDS011;10600;53.096;8.802;2023-01-29T03:21:57;33.45;;;18.75;;
20880;SDS011;10600;53.096;8.802;2023-01-29T03:23:03;35.72;;;18.00;;
20880;SDS011;10600;53.096;8.802;2023-01-29T03:24:11;33.65;;;16.77;;
20880;SDS011;10600;53.096;8.802;2023-01-29T03:25:32;27.58;;;12.68;;
20880;SDS011;10600;53.096;8.802;2023-01-29T03:26:53;36.60;;;19.25;;
20880;SDS011;10600;53.096;8.802;2023-01-29T03:28:15;33.72;;;18.08;;
20880;SDS011;10600;53.096;8.802;2023-01-29T03:29:35;37.95;;;16.30;;
20880;SDS011;10600;53.096;8.802;2023-01-29T03:30:59;36.00;;;19.10;;
20880;SDS011;10600;53.096;8.802;2023-01-29T03:32:22;35.75;;;18.10;;
20880;SDS011;10600;53.096;8.802;2023-01-29T03:33:28;34.58;;;16.35;;
20880;SDS011;10600;53.096;8.802;2023-01-29T03:34:39;38.72;;;19.20;;
20880;SDS011;10600;53.096;8.802;2023-01-29T03:35:49;36.58;;;19.05;;
20880;SDS011;10600;53.096;8.802;2023-01-29T03:38:28;39.88;;;19.50;;
20880;SDS011;10600;53.096;8.802;2023-01-29T03:39:31;31.67;;;15.52;;
20880;SDS011;10600;53.096;8.802;2023-01-29T03:40:43;36.20;;;19.45;;
20880;SDS011;10600;53.096;8.802;2023-01-29T03:41:54;36.25;;;19.10;;
20880;SDS011;10600;53.096;8.802;2023-01-29T03:49:08;38.38;;;19.35;;
20880;SDS011;10600;53.096;8.802;2023-01-29T03:51:09;37.65;;;18.80;;
20880;SDS011;10600;53.096;8.802;2023-01-29T03:54:59;42.63;;;20.58;;
20880;SDS011;10600;53.096;8.802;2023-01-29T03:56:07;30.75;;;16.88;;
20880;SDS011;10600;53.096;8.802;2023-01-29T03:58:39;42.88;;;20.35;;
20880;SDS011;10600;53.096;8.802;2023-01-29T04:00:01;39.88;;;20.33;;
20880;SDS011;10600;53.096;8.802;2023-01-29T04:01:10;39.63;;;20.35;;
20880;SDS011;10600;53.096;8.802;2023-01-29T04:02:12;39.75;;;20.63;;
20880;SDS011;10600;53.096;8.802;2023-01-29T04:03:33;40.15;;;19.08;;
20880;SDS011;10600;53.096;8.802;2023-01-29T04:04:37;39.97;;;20.90;;
20880;SDS011;10600;53.096;8.802;2023-01-29T04:05:45;36.00;;;18.15;;
20880;SDS011;10600;53.096;8.802;2023-01-29T04:06:51;42.63;;;23.98;;
20880;SDS011;10600;53.096;8.802;2023-01-29T04:07:57;41.88;;;21.80;;
20880;SDS011;10600;53.096;8.802;2023-01-29T04:09:09;46.05;;;22.10;;
20880;SDS011;10600;53.096;8.802;2023-01-29T04:10:20;37.00;;;18.23;;
20880;SDS011;10600;53.096;8.802;2023-01-29T04:11:25;41.05;;;20.20;;
20880;SDS011;10600;53.096;8.802;2023-01-29T04:12:36;40.03;;;19.85;;
20880;SDS011;10600;53.096;8.802;2023-01-29T04:13:40;37.50;;;20.00;;
20880;SDS011;10600;53.096;8.802;2023-01-29T04:14:42;37.83;;;19.63;;
20880;SDS011;10600;53.096;8.802;2023-01-29T04:15:57;41.20;;;20.40;;
20880;SDS011;10600;53.096;8.802;2023-01-29T04:17:00;37.35;;;20.77;;
20880;SDS011;10600;53.096;8.802;2023-01-29T04:18:08;43.72;;;22.15;;
20880;SDS011;10600;53.096;8.802;2023-01-29T04:19:09;34.50;;;17.33;;
20880;SDS011;10600;53.096;8.802;2023-01-29T04:20:12;38.97;;;19.73;;
20880;SDS011;10600;53.096;8.802;2023-01-29T04:21:13;43.53;;;21.40;;
20880;SDS011;10600;53.096;8.802;2023-01-29T04:22:16;42.95;;;21.55;;
20880;SDS011;10600;53.096;8.802;2023-01-29T04:23:23;42.85;;;22.80;;
20880;SDS011;10600;53.096;8.802;2023-01-29T04:24:25;41.58;;;22.45;;
20880;SDS011;10600;53.096;8.802;2023-01-29T04:25:27;42.08;;;24.27;;
20880;SDS011;10600;53.096;8.802;2023-01-29T04:32:15;45.35;;;22.75;;
20880;SDS011;10600;53.096;8.802;2023-01-29T04:33:33;46.40;;;21.67;;
20880;SDS011;10600;53.096;8.802;2023-01-29T04:38:25;39.13;;;19.48;;
20880;SDS011;10600;53.096;8.802;2023-01-29T04:39:40;42.53;;;22.00;;
20880;SDS011;10600;53.096;8.802;2023-01-29T04:45:02;40.40;;;22.33;;
20880;SDS011;10600;53.096;8.802;2023-01-29T04:47:30;45.63;;;21.20;;
20880;SDS011;10600;53.096;8.802;2023-01-29T04:48:42;49.22;;;25.70;;
20880;SDS011;10600;53.096;8.802;2023-01-29T04:50:13;44.60;;;22.73;;
20880;SDS011;10600;53.096;8.802;2023-01-29T04:51:26;48.47;;;23.52;;
20880;SDS011;10600;53.096;8.802;2023-01-29T04:52:52;44.33;;;21.55;;
20880;SDS011;10600;53.096;8.802;2023-01-29T04:55:06;43.42;;;22.77;;
20880;SDS011;10600;53.096;8.802;2023-01-29T04:56:19;36.95;;;18.73;;
20880;SDS011;10600;53.096;8.802;2023-01-29T04:57:40;46.95;;;24.77;;
20880;SDS011;10600;53.096;8.802;2023-01-29T04:58:54;50.38;;;23.60;;
20880;SDS011;10600;53.096;8.802;2023-01-29T05:00:59;44.92;;;23.33;;
20880;SDS011;10600;53.096;8.802;2023-01-29T05:02:03;39.78;;;19.90;;
20880;SDS011;10600;53.096;8.802;2023-01-29T05:03:12;46.67;;;24.77;;
20880;SDS011;10600;53.096;8.802;2023-01-29T05:04:15;41.35;;;20.50;;
20880;SDS011;10600;53.096;8.802;2023-01-29T05:05:19;54.30;;;25.70;;
20880;SDS011;10600;53.096;8.802;2023-01-29T05:06:20;48.55;;;26.17;;
20880;SDS011;10600;53.096;8.802;2023-01-29T05:07:22;48.65;;;23.55;;
20880;SDS011;10600;53.096;8.802;2023-01-29T05:08:24;51.50;;;26.25;;
20880;SDS011;10600;53.096;8.802;2023-01-29T05:09:27;44.75;;;24.05;;
20880;SDS011;10600;53.096;8.802;2023-01-29T05:10:28;49.17;;;24.05;;
20880;SDS011;10600;53.096;8.802;2023-01-29T05:11:30;49.75;;;25.20;;
20880;SDS011;10600;53.096;8.802;2023-01-29T05:12:32;46.78;;;25.30;;
20880;SDS011;10600;53.096;8.802;2023-01-29T05:13:35;46.78;;;25.38;;
20880;SDS011;10600;53.096;8.802;2023-01-29T05:14:40;45.97;;;24.55;;
20880;SDS011;10600;53.096;8.802;2023-01-29T05:16:50;47.20;;;25.92;;
20880;SDS011;10600;53.096;8.802;2023-01-29T05:17:52;45.75;;;24.15;;
20880;SDS011;10600;53.096;8.802;2023-01-29T05:18:53;46.78;;;24.42;;
20880;SDS011;10600;53.096;8.802;2023-01-29T05:19:54;47.22;;;25.13;;
20880;SDS011;10600;53.096;8.802;2023-01-29T05:20:55;48.25;;;25.20;;
20880;SDS011;10600;53.096;8.802;2023-01-29T05:21:58;49.55;;;25.27;;
20880;SDS011;10600;53.096;8.802;2023-01-29T05:22:59;44.50;;;23.75;;
20880;SDS011;10600;53.096;8.802;2023-01-29T05:24:19;50.28;;;23.00;;
20880;SDS011;10600;53.096;8.802;2023-01-29T05:25:23;42.40;;;23.02;;
20880;SDS011;10600;53.096;8.802;2023-01-29T05:26:26;42.88;;;21.65;;
20880;SDS011;10600;53.096;8.802;2023-01-29T05:27:46;45.60;;;23.88;;
20880;SDS011;10600;53.096;8.802;2023-01-29T05:29:05;41.53;;;21.90;;
20880;SDS011;10600;53.096;8.802;2023-01-29T05:30:06;44.70;;;23.85;;
20880;SDS011;10600;53.096;8.802;2023-01-29T05:31:07;47.63;;;25.25;;
20880;SDS011;10600;53.096;8.802;2023-01-29T05:32:08;49.63;;;25.70;;
20880;SDS011;10600;53.096;8.802;2023-01-29T05:33:16;46.33;;;23.92;;
20880;SDS011;10600;53.096;8.802;2023-01-29T05:34:17;38.83;;;19.25;;
20880;SDS011;10600;53.096;8.802;2023-01-29T05:35:17;48.13;;;24.88;;
20880;SDS011;10600;53.096;8.802;2023-01-29T05:36:18;38.83;;;19.60;;
20880;SDS011;10600;53.096;8.802;2023-01-29T05:37:18;45.08;;;23.75;;
20880;SDS011;10600;53.096;8.802;2023-01-29T05:38:19;47.15;;;24.45;;
20880;SDS011;10600;53.096;8.802;2023-01-29T05:39:21;43.63;;;23.42;;
20880;SDS011;10600;53.096;8.802;2023-01-29T05:40:22;50.45;;;25.23;;
20880;SDS011;10600;53.096;8.802;2023-01-29T05:41:23;38.03;;;20.63;;
20880;SDS011;10600;53.096;8.802;2023-01-29T05:42:24;43.75;;;22.02;;
20880;SDS011;10600;53.096;8.802;2023-01-29T05:43:25;36.67;;;20.55;;
20880;SDS011;10600;53.096;8.802;2023-01-29T05:44:26;47.08;;;25.48;;
20880;SDS011;10600;53.096;8.802;2023-01-29T05:45:26;42.58;;;23.58;;
20880;SDS011;10600;53.096;8.802;2023-01-29T05:46:27;50.05;;;26.23;;
20880;SDS011;10600;53.096;8.802;2023-01-29T05:47:28;49.60;;;25.38;;
20880;SDS011;10600;53.096;8.802;2023-01-29T05:48:29;48.80;;;24.58;;
20880;SDS011;10600;53.096;8.802;2023-01-29T05:49:31;47.15;;;23.50;;
20880;SDS011;10600;53.096;8.802;2023-01-29T05:50:31;49.00;;;23.58;;
20880;SDS011;10600;53.096;8.802;2023-01-29T05:51:32;54.65;;;26.42;;
20880;SDS011;10600;53.096;8.802;2023-01-29T05:52:32;52.75;;;25.70;;
20880;SDS011;10600;53.096;8.802;2023-01-29T05:53:33;54.33;;;27.02;;
20880;SDS011;10600;53.096;8.802;2023-01-29T05:54:34;55.83;;;28.15;;
20880;SDS011;10600;53.096;8.802;2023-01-29T05:55:34;50.28;;;26.00;;
20880;SDS011;10600;53.096;8.802;2023-01-29T05:56:35;57.53;;;27.48;;
20880;SDS011;10600;53.096;8.802;2023-01-29T05:57:36;54.92;;;27.73;;
20880;SDS011;10600;53.096;8.802;2023-01-29T05:58:36;47.45;;;25.75;;
20880;SDS011;10600;53.096;8.802;2023-01-29T05:59:37;55.33;;;27.88;;
20880;SDS011;10600;53.096;8.802;2023-01-29T06:00:38;57.28;;;29.60;;
20880;SDS011;10600;53.096;8.802;2023-01-29T06:01:39;62.28;;;29.90;;
20880;SDS011;10600;53.096;8.802;2023-01-29T06:02:40;60.70;;;29.45;;
20880;SDS011;10600;53.096;8.802;2023-01-29T06:03:41;57.17;;;28.05;;
20880;SDS011;10600;53.096;8.802;2023-01-29T06:04:41;58.15;;;28.42;;
20880;SDS011;10600;53.096;8.802;2023-01-29T06:05:42;64.85;;;31.92;;
20880;SDS011;10600;53.096;8.802;2023-01-29T06:06:43;59.75;;;32.05;;
20880;SDS011;10600;53.096;8.802;2023-01-29T06:07:43;65.63;;;33.38;;
20880;SDS011;10600;53.096;8.802;2023-01-29T06:08:44;70.97;;;34.28;;
20880;SDS011;10600;53.096;8.802;2023-01-29T06:09:45;64.82;;;31.83;;
20880;SDS011;10600;53.096;8.802;2023-01-29T06:10:45;68.05;;;32.75;;
20880;SDS011;10600;53.096;8.802;2023-01-29T06:11:46;65.25;;;32.25;;
20880;SDS011;10600;53.096;8.802;2023-01-29T06:12:46;70.93;;;33.88;;
20880;SDS011;10600;53.096;8.802;2023-01-29T06:13:47;72.32;;;35.35;;
20880;SDS011;10600;53.096;8.802;2023-01-29T06:14:48;63.70;;;31.10;;
20880;SDS011;10600;53.096;8.802;2023-01-29T06:15:49;77.32;;;35.45;;
20880;SDS011;10600;53.096;8.802;2023-01-29T06:16:50;70.88;;;35.60;;
20880;SDS011;10600;53.096;8.802;2023-01-29T06:17:54;76.25;;;35.45;;
20880;SDS011;10600;53.096;8.802;2023-01-29T06:18:55;73.82;;;36.72;;
20880;SDS011;10600;53.096;8.802;2023-01-29T06:19:56;75.75;;;37.33;;
20880;SDS011;10600;53.096;8.802;2023-01-29T06:21:03;72.43;;;33.58;;
20880;SDS011;10600;53.096;8.802;2023-01-29T06:22:05;75.97;;;36.53;;
20880;SDS011;10600;53.096;8.802;2023-01-29T06:23:06;84.18;;;38.17;;
20880;SDS011;10600;53.096;8.802;2023-01-29T06:24:06;74.13;;;35.25;;
20880;SDS011;10600;53.096;8.802;2023-01-29T06:25:07;78.25;;;36.83;;
20880;SDS011;10600;53.096;8.802;2023-01-29T06:26:13;76.85;;;36.22;;
20880;SDS011;10600;53.096;8.802;2023-01-29T06:27:14;71.35;;;33.65;;
20880;SDS011;10600;53.096;8.802;2023-01-29T06:28:15;79.28;;;37.42;;
20880;SDS011;10600;53.096;8.802;2023-01-29T06:29:15;63.20;;;30.75;;
20880;SDS011;10600;53.096;8.802;2023-01-29T06:30:16;71.78;;;35.53;;
20880;SDS011;10600;53.096;8.802;2023-01-29T06:31:17;77.82;;;37.97;;
20880;SDS011;10600;53.096;8.802;2023-01-29T06:32:17;78.22;;;37.00;;
20880;SDS011;10600;53.096;8.802;2023-01-29T06:33:18;74.00;;;37.42;;
20880;SDS011;10600;53.096;8.802;2023-01-29T06:34:19;71.88;;;35.35;;
20880;SDS011;10600;53.096;8.802;2023-01-29T06:35:19;72.65;;;33.40;;
20880;SDS011;10600;53.096;8.802;2023-01-29T06:36:20;74.93;;;38.47;;
20880;SDS011;10600;53.096;8.802;2023-01-29T06:37:20;77.10;;;37.22;;
20880;SDS011;10600;53.096;8.802;2023-01-29T06:38:21;78.65;;;36.92;;
20880;SDS011;10600;53.096;8.802;2023-01-29T06:39:22;77.93;;;37.22;;
20880;SDS011;10600;53.096;8.802;2023-01-29T06:40:23;77.60;;;37.00;;
20880;SDS011;10600;53.096;8.802;2023-01-29T06:41:23;83.13;;;35.42;;
20880;SDS011;10600;53.096;8.802;2023-01-29T06:42:24;70.20;;;36.55;;
20880;SDS011;10600;53.096;8.802;2023-01-29T06:43:26;77.28;;;37.53;;
20880;SDS011;10600;53.096;8.802;2023-01-29T06:44:27;68.32;;;35.35;;
20880;SDS011;10600;53.096;8.802;2023-01-29T06:45:28;75.45;;;36.33;;
20880;SDS011;10600;53.096;8.802;2023-01-29T06:46:28;72.75;;;36.92;;
20880;SDS011;10600;53.096;8.802;2023-01-29T06:47:29;71.50;;;36.03;;
20880;SDS011;10600;53.096;8.802;2023-01-29T06:48:30;78.78;;;38.25;;
20880;SDS011;10600;53.096;8.802;2023-01-29T06:49:30;76.30;;;35.92;;
20880;SDS011;10600;53.096;8.802;2023-01-29T06:50:31;73.43;;;37.50;;
20880;SDS011;10600;53.096;8.802;2023-01-29T06:51:32;78.70;;;39.70;;
20880;SDS011;10600;53.096;8.802;2023-01-29T06:52:32;74.93;;;38.42;;
20880;SDS011;10600;53.096;8.802;2023-01-29T06:53:33;78.38;;;38.15;;
20880;SDS011;10600;53.096;8.802;2023-01-29T06:54:34;84.45;;;39.97;;
20880;SDS011;10600;53.096;8.802;2023-01-29T06:55:35;78.05;;;39.20;;
20880;SDS011;10600;53.096;8.802;2023-01-29T06:56:36;79.50;;;39.50;;
20880;SDS011;10600;53.096;8.802;2023-01-29T06:57:37;82.85;;;40.83;;
20880;SDS011;10600;53.096;8.802;2023-01-29T06:58:37;79.97;;;40.45;;
20880;SDS011;10600;53.096;8.802;2023-01-29T06:59:38;78.13;;;39.20;;
20880;SDS011;10600;53.096;8.802;2023-01-29T07:00:38;80.07;;;40.65;;
20880;SDS011;10600;53.096;8.802;2023-01-29T07:01:39;84.80;;;41.50;;
20880;SDS011;10600;53.096;8.802;2023-01-29T07:02:41;86.32;;;42.13;;
20880;SDS011;10600;53.096;8.802;2023-01-29T07:03:42;84.72;;;41.20;;
20880;SDS011;10600;53.096;8.802;2023-01-29T07:04:42;89.80;;;44.08;;
20880;SDS011;10600;53.096;8.802;2023-01-29T07:05:49;77.95;;;36.90;;
20880;SDS011;10600;53.096;8.802;2023-01-29T07:06:51;83.57;;;41.17;;
20880;SDS011;10600;53.096;8.802;2023-01-29T07:07:51;83.78;;;42.13;;
20880;SDS011;10600;53.096;8.802;2023-01-29T07:08:53;80.95;;;40.35;;
20880;SDS011;10600;53.096;8.802;2023-01-29T07:09:53;82.53;;;39.72;;
20880;SDS011;10600;53.096;8.802;2023-01-29T07:10:58;79.70;;;39.17;;
20880;SDS011;10600;53.096;8.802;2023-01-29T07:11:59;81.47;;;40.42;;
20880;SDS011;10600;53.096;8.802;2023-01-29T07:13:00;76.38;;;39.55;;
20880;SDS011;10600;53.096;8.802;2023-01-29T07:14:01;84.32;;;40.53;;
20880;SDS011;10600;53.096;8.802;2023-01-29T07:15:01;79.22;;;39.38;;